首页
METAR-TAF:

METAR-TAF

机场 :

Sky Harbor Airport

杜魯斯, 明尼蘇達州, 美国

纬度: 46-43-19N, 经度: 092-02-36W, 海拔: 186米

当前天气观测

该预报发布于31分钟前的18:35 UTC
风速23节,风向西转西北
温度 -8°C
湿度 62%
气压 1022 hPa
能見度: 8.0公里
阴天层高于4900英尺

METAR: KDYT 181835Z AUTO 29023KT 5SM HZ OVC049 M08/M14 A3019 RMK AO2

时间: 13:06 (19:06 UTC)


TAF: 丢失

超过4000个机场的气象观测和天气预报(METAR&TAF报告)。

可查询的气象台以黄色和红色小点在地图上表示。

将鼠标移到小点上方,可查看气象台名称。

然后点击查看天气观测和预报。

如需切换地图:点击带黑十字的绿色按钮放大地图;点击带横线的绿色按钮缩小地图;或者点击绿色箭头查看邻近地区的地图。


METAR-TAF: